Kelowna Airport
CYLW : now visible

Airfield :











YOU CAN JOIN US ON...

 
LOGIN :

Register | Disclaimer

   EN    FR    IT 

 









Legend :    VFR   Marginal VFR   IFR   Intensive IFR   Very Intensive IFR
Visi :
Ceiling :
>= 8 km
>= 3000ft
5 to 8 km
1000 to 3000 ft
1500m to 5 km
500 to 1000 ft
800 to 1500m
200 to 500 ft
< 800m
< 200 ft
Symbols :   Thunderstorms  Fog  Heavy snow  Heavy precipitations  Wind > 20 kt






- Airport Elevation : 1409 ft
- IATA code : YLW


CYLW - Kelowna

CURRENT METAR :
  • 080525Z AUTO 14008KT 9SM -RA SCT060 BKN075 OVC088 17/08 A2996 RMK SLP145 DENSITY ALT 1800FT

EXPIRED METARs :
  • 080500Z AUTO 13006KT 9SM BKN070 OVC091 17/09 A2995 RMK SLP143 DENSITY ALT 1900FT
  • 080400Z AUTO 16006KT 9SM BKN080 OVC099 17/10 A2993 RMK SLP136 DENSITY ALT 1900FT
  • 080341Z AUTO 14008KT 9SM FEW070 OVC094 18/10 A2991 RMK SLP131 DENSITY ALT 2000FT
  • 080302Z AUTO 14005KT 130V200 9SM -RA OVC085 19/11 A2990 RMK SLP126 DENSITY ALT 2100FT

TAF TAF CYLW
Valid from the 08 at 01:00 until the 08 at 13:00 UTC


080038Z 0801/0813 09006KT P6SM SCT060 BKN090
TEMPO 0801/0804 P6SM -SHRA BKN060
PROB30 0801/0803 VRB15G25KT 5SM TSRA BKN060CB
FM080600 17008KT P6SM BKN060
BECMG 0809/0811 VRB03KT RMK FCST BASED ON AUTO OBS. NXT FCST BY 080700Z
CZVR FIR / North America



MET'MAP, your aeronautical weather chart ! - Copyright ORBIFLY December 2007 - Disclaimer

ORBIFLY MET'MAP TEAM :

Programming & Development : Alexandra Zaïnal
Concept & original design : Baudouin d'Aumeries
Assistance for programming : Marc-Olivier Méhu
Technical & hardware support : Manuel Goepfert

Contact : metmap@orbifly.com




SOURCES & CREDITS :

   NOAA       Earth
Advisory